.
WxDataArchive / Data Records for 2013-11-19
2013-11-18 November 2013 2013-11-20

Data Records for Tuesday, 19 November 2013

Time	Temp	Chill	HIndex	Humid	Dewpt	 Wind 	HiWind	WindDir	Rain 	Barom 
-----	----	-----	------	-----	-----	------	------	-------	-----	----- 
00:00	35.9	35.9	35.9	69	26.7	0	1	292	0.00	30.184 
00:05	35.9	35.9	35.9	69	26.7	0	2	292	0.00	30.184 
00:10	35.9	35.9	35.9	69	26.7	0	2	292	0.00	30.184 
00:15	35.9	35.9	35.9	69	26.7	0	0	---	0.00	30.184 
00:20	35.9	35.9	35.9	69	26.7	0	1	292	0.00	30.184 
00:25	35.9	35.9	35.9	69	26.7	0	2	292	0.00	30.184 
00:30	35.9	35.9	35.9	69	26.7	0	1	292	0.00	30.185 
00:35	36.0	36.0	36.0	69	26.8	1	3	292	0.00	30.185 
00:40	36.0	36.0	36.0	69	26.8	0	3	292	0.00	30.185 
00:45	36.0	36.0	36.0	66	25.8	2	7	292	0.00	30.191 
00:50	36.0	36.0	36.0	64	25.0	2	6	292	0.00	30.191 
00:55	35.9	35.9	35.9	60	23.4	2	5	315	0.00	30.191 
01:00	35.8	35.8	35.8	60	23.3	2	5	315	0.00	30.194 
01:05	35.6	35.6	35.6	60	23.1	3	11	338	0.00	30.194 
01:10	35.5	32.1	35.5	59	22.6	4	10	338	0.00	30.194 
01:15	35.3	35.3	35.3	59	22.4	3	10	292	0.00	30.191 
01:20	35.2	35.2	35.2	59	22.3	2	5	338	0.00	30.191 
01:25	35.0	35.0	35.0	60	22.5	3	7	292	0.00	30.191 
01:30	35.0	35.0	35.0	60	22.5	1	5	338	0.00	30.193 
01:35	35.0	35.0	35.0	61	22.9	1	3	315	0.00	30.193 
01:40	35.0	35.0	35.0	61	22.9	2	5	338	0.00	30.193 
01:45	34.9	34.9	34.9	62	23.2	1	3	292	0.00	30.202 
01:50	35.0	35.0	35.0	61	22.9	1	3	292	0.00	30.202 
01:55	35.0	35.0	35.0	62	23.3	0	2	292	0.00	30.202 
02:00	35.0	35.0	35.0	61	22.9	2	7	292	0.00	30.206 
02:05	35.2	35.2	35.2	61	23.1	2	5	270	0.00	30.206 
02:10	35.2	35.2	35.2	61	23.1	1	4	315	0.00	30.206 
02:15	35.2	35.2	35.2	62	23.5	1	4	315	0.00	30.207 
02:20	35.2	35.2	35.2	61	23.1	2	6	292	0.00	30.207 
02:25	35.2	35.2	35.2	62	23.5	0	2	315	0.00	30.207 
02:30	35.2	35.2	35.2	62	23.5	0	3	315	0.00	30.210 
02:35	35.2	35.2	35.2	62	23.5	1	3	315	0.00	30.210 
02:40	35.2	35.2	35.2	63	23.9	0	3	315	0.00	30.210 
02:45	35.0	35.0	35.0	62	23.3	1	3	315	0.00	30.211 
02:50	35.2	35.2	35.2	62	23.5	1	4	315	0.00	30.211 
02:55	35.2	35.2	35.2	63	23.9	0	2	292	0.00	30.211 
03:00	35.2	35.2	35.2	63	23.9	0	3	292	0.00	30.215 
03:05	35.2	35.2	35.2	62	23.5	1	3	292	0.00	30.215 
03:10	35.2	35.2	35.2	63	23.9	1	5	338	0.00	30.215 
03:15	35.2	35.2	35.2	63	23.9	0	1	338	0.00	30.218 
03:20	35.0	35.0	35.0	63	23.7	0	2	338	0.00	30.218 
03:25	35.0	35.0	35.0	64	24.1	0	1	338	0.00	30.218 
03:30	35.0	35.0	35.0	63	23.7	1	5	0	0.00	30.217 
03:35	34.9	34.9	34.9	63	23.6	1	4	292	0.00	30.217 
03:40	34.9	34.9	34.9	63	23.6	1	3	270	0.00	30.217 
03:45	34.9	34.9	34.9	63	23.6	0	2	270	0.00	30.233 
03:50	34.9	34.9	34.9	62	23.2	2	6	270	0.00	30.233 
03:55	34.9	34.9	34.9	63	23.6	1	4	315	0.00	30.233 
04:00	34.9	34.9	34.9	63	23.6	1	5	315	0.00	30.237 
04:05	34.9	34.9	34.9	63	23.6	1	7	338	0.00	30.237 
04:10	34.7	34.7	34.7	62	23.0	1	4	292	0.00	30.237 
04:15	34.7	34.7	34.7	62	23.0	2	5	292	0.00	30.249 
04:20	34.7	34.7	34.7	62	23.0	1	3	0	0.00	30.249 
04:25	34.9	34.9	34.9	62	23.2	1	5	338	0.00	30.249 
04:30	34.9	34.9	34.9	62	23.2	2	5	315	0.00	30.252 
04:35	34.9	34.9	34.9	62	23.2	1	3	315	0.00	30.252 
04:40	34.9	34.9	34.9	63	23.6	1	3	315	0.00	30.252 
04:45	34.9	34.9	34.9	63	23.6	1	3	315	0.00	30.253 
04:50	34.9	34.9	34.9	63	23.6	1	4	315	0.00	30.253 
04:55	34.9	34.9	34.9	63	23.6	1	4	315	0.00	30.253 
05:00	34.9	34.9	34.9	64	24.0	0	2	315	0.00	30.261 
05:05	34.9	34.9	34.9	63	23.6	1	2	315	0.00	30.261 
05:10	34.9	34.9	34.9	63	23.6	0	1	315	0.00	30.261 
05:15	34.9	34.9	34.9	64	24.0	0	2	315	0.00	30.262 
05:20	34.7	34.7	34.7	64	23.8	0	2	315	0.00	30.262 
05:25	34.7	34.7	34.7	64	23.8	0	1	315	0.00	30.262 
05:30	34.7	34.7	34.7	64	23.8	0	2	315	0.00	30.265 
05:35	34.7	34.7	34.7	63	23.4	1	3	315	0.00	30.265 
05:40	34.7	34.7	34.7	63	23.4	0	2	315	0.00	30.265 
05:45	34.7	34.7	34.7	64	23.8	0	1	315	0.00	30.266 
05:50	34.7	34.7	34.7	64	23.8	0	2	315	0.00	30.266 
05:55	34.7	34.7	34.7	64	23.8	1	4	0	0.00	30.266 
06:00	34.7	34.7	34.7	64	23.8	0	2	0	0.00	30.266 
06:05	34.7	34.7	34.7	64	23.8	0	2	0	0.00	30.266 
06:10	34.7	34.7	34.7	64	23.8	0	4	0	0.00	30.266 
06:15	34.7	34.7	34.7	64	23.8	1	3	338	0.00	30.274 
06:20	34.7	34.7	34.7	64	23.8	1	4	292	0.00	30.274 
06:25	34.7	34.7	34.7	64	23.8	1	3	315	0.00	30.274 
06:30	34.6	34.6	34.6	64	23.7	0	3	315	0.00	30.281 
06:35	34.6	34.6	34.6	64	23.7	0	1	315	0.00	30.281 
06:40	34.6	34.6	34.6	65	24.1	0	2	315	0.00	30.281 
06:45	34.6	34.6	34.6	65	24.1	0	3	315	0.00	30.284 
06:50	34.6	34.6	34.6	65	24.1	0	2	338	0.00	30.284 
06:55	34.6	34.6	34.6	65	24.1	0	0	---	0.00	30.284 
07:00	34.6	34.6	34.6	65	24.1	0	1	338	0.00	30.291 
07:05	34.6	34.6	34.6	65	24.1	0	2	338	0.00	30.291 
07:10	34.6	34.6	34.6	65	24.1	0	2	338	0.00	30.291 
07:15	34.6	34.6	34.6	65	24.1	0	2	338	0.00	30.299 
07:20	34.6	34.6	34.6	65	24.1	1	3	315	0.00	30.299 
07:25	34.7	34.7	34.7	65	24.2	0	2	315	0.00	30.299 
07:30	34.7	34.7	34.7	65	24.2	0	2	315	0.00	30.308 
07:35	34.7	34.7	34.7	65	24.2	0	1	315	0.00	30.308 
07:40	34.7	34.7	34.7	66	24.5	0	1	315	0.00	30.308 
07:45	34.6	34.6	34.6	66	24.4	0	3	315	0.00	30.314 
07:50	34.7	34.7	34.7	66	24.5	0	4	292	0.00	30.314 
07:55	34.7	34.7	34.7	65	24.2	1	3	292	0.00	30.314 
08:00	34.7	34.7	34.7	65	24.2	1	4	292	0.00	30.321 
08:05	34.7	34.7	34.7	64	23.8	1	4	292	0.00	30.321 
08:10	34.7	34.7	34.7	64	23.8	1	3	315	0.00	30.321 
08:15	34.7	34.7	34.7	64	23.8	1	5	315	0.00	30.330 
08:20	34.7	34.7	34.7	64	23.8	1	4	22	0.00	30.330 
08:25	34.7	34.7	34.7	64	23.8	0	2	292	0.00	30.330 
08:30	34.9	34.9	34.9	65	24.3	0	2	292	0.00	30.333 
08:35	34.9	34.9	34.9	65	24.3	0	3	292	0.00	30.333 
08:40	34.9	34.9	34.9	64	24.0	1	4	315	0.00	30.333 
08:45	34.9	34.9	34.9	64	24.0	1	4	0	0.00	30.338 
08:50	34.9	34.9	34.9	64	24.0	1	4	45	0.00	30.338 
08:55	35.0	35.0	35.0	64	24.1	1	3	315	0.00	30.338 
09:00	35.0	35.0	35.0	64	24.1	0	2	315	0.00	30.344 
09:05	35.2	35.2	35.2	64	24.3	0	2	315	0.00	30.344 
09:10	35.3	35.3	35.3	65	24.7	0	1	315	0.00	30.344 
09:15	35.3	35.3	35.3	65	24.7	0	2	315	0.00	30.350 
09:20	35.5	35.5	35.5	64	24.5	0	2	315	0.00	30.350 
09:25	35.5	35.5	35.5	63	24.2	1	3	315	0.00	30.350 
09:30	35.5	35.5	35.5	63	24.2	1	5	90	0.00	30.353 
09:35	35.6	35.6	35.6	63	24.3	1	5	22	0.00	30.353 
09:40	35.8	35.8	35.8	63	24.5	0	2	90	0.00	30.353 
09:45	35.9	35.9	35.9	63	24.5	0	3	90	0.00	30.360 
09:50	36.0	36.0	36.0	63	24.6	0	2	68	0.00	30.360 
09:55	36.0	36.0	36.0	62	24.3	0	3	68	0.00	30.360 
10:00	36.2	36.2	36.2	62	24.5	0	2	68	0.00	30.361 
10:05	36.2	36.2	36.2	62	24.5	0	2	68	0.00	30.361 
10:10	36.6	36.6	36.6	62	24.8	1	4	90	0.00	30.361 
10:15	36.8	36.8	36.8	62	25.0	0	3	90	0.00	30.362 
10:20	36.9	36.9	36.9	61	24.7	0	3	90	0.00	30.362 
10:25	37.0	37.0	37.0	61	24.8	0	2	90	0.00	30.362 
10:30	37.3	37.3	37.3	61	25.1	1	3	90	0.00	30.361 
10:35	37.6	37.6	37.6	58	24.2	1	5	112	0.00	30.361 
10:40	37.6	37.6	37.6	60	25.0	1	3	45	0.00	30.361 
10:45	37.9	37.9	37.9	61	25.7	0	2	338	0.00	30.361 
10:50	37.6	37.6	37.6	58	24.2	2	4	292	0.00	30.361 
10:55	37.3	37.3	37.3	59	24.3	1	3	315	0.00	30.361 
11:00	37.2	37.2	37.2	60	24.6	1	2	315	0.00	30.362 
11:05	37.0	37.0	37.0	60	24.4	0	3	315	0.00	30.362 
11:10	37.0	37.0	37.0	59	24.0	1	3	315	0.00	30.362 
11:15	37.3	37.3	37.3	58	23.9	1	4	315	0.00	30.361 
11:20	37.2	37.2	37.2	58	23.8	0	3	315	0.00	30.361 
11:25	37.5	37.5	37.5	60	24.9	1	4	90	0.00	30.361 
11:30	37.6	37.6	37.6	59	24.6	1	3	68	0.00	30.352 
11:35	37.8	37.8	37.8	59	24.8	2	6	112	0.00	30.352 
11:40	38.0	38.0	38.0	58	24.6	0	3	135	0.00	30.352 
11:45	38.2	38.2	38.2	57	24.3	0	2	135	0.00	30.347 
11:50	38.2	38.2	38.2	58	24.7	1	4	338	0.00	30.347 
11:55	38.2	38.2	38.2	57	24.3	0	2	338	0.00	30.347 
12:00	38.5	38.5	38.5	58	25.0	1	5	22	0.00	30.346 
12:05	38.6	38.6	38.6	60	25.9	1	4	90	0.00	30.346 
12:10	38.6	38.6	38.6	57	24.7	1	7	112	0.00	30.346 
12:15	38.3	38.3	38.3	57	24.4	1	4	112	0.00	30.344 
12:20	38.5	38.5	38.5	58	25.0	1	5	112	0.00	30.344 
12:25	38.6	38.6	38.6	55	23.8	1	3	90	0.00	30.344 
12:30	38.8	38.8	38.8	56	24.5	2	6	90	0.00	30.344 
12:35	38.8	38.8	38.8	54	23.6	1	4	90	0.00	30.344 
12:40	38.8	38.8	38.8	56	24.5	1	7	90	0.00	30.344 
12:45	38.8	38.8	38.8	56	24.5	0	2	90	0.00	30.341 
12:50	39.1	39.1	39.1	55	24.3	0	1	90	0.00	30.341 
12:55	39.2	39.2	39.2	54	24.0	1	4	45	0.00	30.341 
13:00	39.3	39.3	39.3	54	24.1	0	3	45	0.00	30.337 
13:05	39.3	39.3	39.3	54	24.1	0	2	68	0.00	30.337 
13:10	39.5	39.5	39.5	54	24.2	1	2	68	0.00	30.337 
13:15	39.3	39.3	39.3	53	23.6	0	2	68	0.00	30.334 
13:20	39.2	39.2	39.2	53	23.5	2	5	68	0.00	30.334 
13:25	39.2	39.2	39.2	55	24.4	0	3	90	0.00	30.334 
13:30	39.2	39.2	39.2	54	24.0	1	3	90	0.00	30.332 
13:35	39.2	39.2	39.2	55	24.4	0	1	90	0.00	30.332 
13:40	39.3	39.3	39.3	54	24.1	0	1	90	0.00	30.332 
13:45	39.5	39.5	39.5	54	24.2	1	4	90	0.00	30.331 
13:50	39.5	39.5	39.5	54	24.2	0	1	90	0.00	30.331 
13:55	39.6	39.6	39.6	53	23.9	1	5	90	0.00	30.331 
14:00	39.6	39.6	39.6	52	23.4	0	4	90	0.00	30.331 
14:05	39.8	39.8	39.8	54	24.5	1	4	90	0.00	30.331 
14:10	39.9	39.9	39.9	51	23.3	1	4	90	0.00	30.331 
14:15	39.9	39.9	39.9	51	23.3	1	3	90	0.00	30.331 
14:20	39.9	39.9	39.9	52	23.7	2	4	90	0.00	30.331 
14:25	39.8	39.8	39.8	52	23.6	0	2	90	0.00	30.331 
14:30	39.9	39.9	39.9	53	24.2	0	2	90	0.00	30.328 
14:35	40.1	40.1	40.1	53	24.4	1	3	90	0.00	30.328 
14:40	40.1	40.1	40.1	52	23.9	0	2	90	0.00	30.328 
14:45	40.2	40.2	40.2	53	24.5	0	3	90	0.00	30.322 
14:50	40.3	40.3	40.3	53	24.5	1	5	90	0.00	30.322 
14:55	40.3	40.3	40.3	51	23.6	1	3	90	0.00	30.322 
15:00	40.3	40.3	40.3	53	24.5	1	2	90	0.00	30.323 
15:05	40.3	40.3	40.3	52	24.1	0	2	90	0.00	30.323 
15:10	40.5	40.5	40.5	51	23.8	0	3	90	0.00	30.323 
15:15	40.5	40.5	40.5	49	22.9	1	4	90	0.00	30.323 
15:20	40.5	40.5	40.5	51	23.8	1	4	90	0.00	30.323 
15:25	40.3	40.3	40.3	52	24.1	1	3	90	0.00	30.323 
15:30	40.3	40.3	40.3	53	24.5	0	3	90	0.00	30.327 
15:35	40.3	40.3	40.3	52	24.1	1	3	90	0.00	30.327 
15:40	40.3	40.3	40.3	52	24.1	1	3	90	0.00	30.327 
15:45	40.5	40.5	40.5	53	24.7	0	2	90	0.00	30.330 
15:50	40.5	40.5	40.5	52	24.3	1	3	90	0.00	30.330 
15:55	40.3	40.3	40.3	52	24.1	1	2	90	0.00	30.330 
16:00	40.2	40.2	40.2	52	24.0	1	4	90	0.00	30.332 
16:05	40.1	40.1	40.1	52	23.9	1	3	90	0.00	30.332 
16:10	40.1	40.1	40.1	54	24.8	0	2	90	0.00	30.332 
16:15	39.9	39.9	39.9	52	23.7	0	3	90	0.00	30.331 
16:20	39.9	39.9	39.9	52	23.7	1	3	90	0.00	30.331 
16:25	39.8	39.8	39.8	53	24.1	0	3	90	0.00	30.331 
16:30	39.6	39.6	39.6	53	23.9	1	3	90	0.00	30.338 
16:35	39.6	39.6	39.6	54	24.3	1	4	90	0.00	30.338 
16:40	39.5	39.5	39.5	53	23.8	1	2	90	0.00	30.338 
16:45	39.3	39.3	39.3	54	24.1	0	1	90	0.00	30.343 
16:50	39.2	39.2	39.2	54	24.0	0	1	90	0.00	30.343 
16:55	39.1	39.1	39.1	54	23.9	0	2	90	0.00	30.343 
17:00	38.9	38.9	38.9	55	24.1	0	1	90	0.00	30.345 
17:05	38.6	38.6	38.6	55	23.8	0	1	90	0.00	30.345 
17:10	38.5	38.5	38.5	56	24.2	0	0	---	0.00	30.345 
17:15	38.2	38.2	38.2	57	24.3	0	1	90	0.00	30.346 
17:20	37.9	37.9	37.9	58	24.5	0	0	---	0.00	30.346 
17:25	37.6	37.6	37.6	58	24.2	0	1	90	0.00	30.346 
17:30	37.3	37.3	37.3	58	23.9	0	0	---	0.00	30.347 
17:35	37.0	37.0	37.0	58	23.6	0	0	---	0.00	30.347 
17:40	36.6	36.6	36.6	59	23.6	0	0	---	0.00	30.347 
17:45	36.2	36.2	36.2	60	23.7	0	0	---	0.00	30.350 
17:50	35.8	35.8	35.8	61	23.7	0	0	---	0.00	30.350 
17:55	35.3	35.3	35.3	62	23.6	0	0	---	0.00	30.350 
18:00	35.0	35.0	35.0	63	23.7	0	0	---	0.00	30.354 
18:05	34.6	34.6	34.6	65	24.1	0	0	---	0.00	30.354 
18:10	34.3	34.3	34.3	65	23.8	0	0	---	0.00	30.354 
18:15	34.1	34.1	34.1	65	23.6	0	0	---	0.00	30.362 
18:20	33.8	33.8	33.8	66	23.7	0	0	---	0.00	30.362 
18:25	33.5	33.5	33.5	67	23.7	0	0	---	0.00	30.362 
18:30	33.2	33.2	33.2	69	24.2	0	0	---	0.00	30.364 
18:35	32.9	32.9	32.9	69	23.9	0	0	---	0.00	30.364 
18:40	32.8	32.8	32.8	70	24.1	0	0	---	0.00	30.364 
18:45	32.5	32.5	32.5	70	23.8	0	0	---	0.00	30.365 
18:50	32.2	32.2	32.2	70	23.5	0	0	---	0.00	30.365 
18:55	31.9	31.9	31.9	71	23.6	0	0	---	0.00	30.365 
19:00	31.8	31.8	31.8	71	23.5	0	0	---	0.00	30.368 
19:05	31.6	31.6	31.6	71	23.3	0	0	---	0.00	30.368 
19:10	31.3	31.3	31.3	72	23.3	0	0	---	0.00	30.368 
19:15	31.2	31.2	31.2	73	23.6	0	0	---	0.00	30.367 
19:20	30.9	30.9	30.9	74	23.6	0	0	---	0.00	30.367 
19:25	30.7	30.7	30.7	74	23.4	0	0	---	0.00	30.367 
19:30	30.6	30.6	30.6	74	23.3	0	0	---	0.00	30.367 
19:35	30.4	30.4	30.4	75	23.4	0	0	---	0.00	30.367 
19:40	30.3	30.3	30.3	75	23.3	0	0	---	0.00	30.367 
19:45	30.1	30.1	30.1	75	23.2	0	0	---	0.00	30.370 
19:50	30.0	30.0	30.0	76	23.4	0	0	---	0.00	30.370 
19:55	29.8	29.8	29.8	76	23.2	0	0	---	0.00	30.370 
20:00	29.7	29.7	29.7	77	23.4	0	0	---	0.00	30.372 
20:05	29.5	29.5	29.5	78	23.5	0	0	---	0.00	30.372 
20:10	29.4	29.4	29.4	79	23.7	0	0	---	0.00	30.372 
20:15	29.4	29.4	29.4	80	24.0	0	0	---	0.00	30.372 
20:20	29.3	29.3	29.3	80	23.9	0	0	---	0.00	30.372 
20:25	29.3	29.3	29.3	80	23.9	0	0	---	0.00	30.372 
20:30	29.0	29.0	29.0	80	23.6	0	0	---	0.00	30.376 
20:35	28.8	28.8	28.8	80	23.4	0	0	---	0.00	30.376 
20:40	28.7	28.7	28.7	80	23.3	0	0	---	0.00	30.376 
20:45	28.4	28.4	28.4	80	23.0	0	0	---	0.00	30.371 
20:50	28.2	28.2	28.2	81	23.1	0	0	---	0.00	30.371 
20:55	28.2	28.2	28.2	81	23.1	0	0	---	0.00	30.371 
21:00	28.1	28.1	28.1	82	23.3	0	0	---	0.00	30.373 
21:05	28.1	28.1	28.1	82	23.3	0	0	---	0.00	30.373 
21:10	28.1	28.1	28.1	83	23.6	0	0	---	0.00	30.373 
21:15	28.1	28.1	28.1	83	23.6	0	0	---	0.00	30.373 
21:20	27.9	27.9	27.9	83	23.4	0	0	---	0.00	30.373 
21:25	27.8	27.8	27.8	83	23.3	0	0	---	0.00	30.373 
21:30	27.8	27.8	27.8	84	23.6	0	0	---	0.00	30.375 
21:35	27.8	27.8	27.8	84	23.6	0	0	---	0.00	30.375 
21:40	27.6	27.6	27.6	84	23.4	0	0	---	0.00	30.375 
21:45	27.6	27.6	27.6	84	23.4	0	0	---	0.00	30.373 
21:50	27.5	27.5	27.5	84	23.3	0	0	---	0.00	30.373 
21:55	27.5	27.5	27.5	84	23.3	0	0	---	0.00	30.373 
22:00	27.3	27.3	27.3	84	23.1	0	0	---	0.00	30.375 
22:05	27.2	27.2	27.2	84	23.0	0	0	---	0.00	30.375 
22:10	27.0	27.0	27.0	84	22.8	0	0	---	0.00	30.375 
22:15	26.9	26.9	26.9	85	23.0	0	0	---	0.00	30.371 
22:20	26.9	26.9	26.9	85	23.0	0	0	---	0.00	30.371 
22:25	26.9	26.9	26.9	85	23.0	0	0	---	0.00	30.371 
22:30	26.9	26.9	26.9	85	23.0	0	0	---	0.00	30.371 
22:35	26.7	26.7	26.7	86	23.1	0	0	---	0.00	30.371 
22:40	26.9	26.9	26.9	87	23.6	0	1	90	0.00	30.371 
22:45	27.5	27.5	27.5	87	24.1	0	1	90	0.00	30.370 
22:50	27.9	27.9	27.9	86	24.3	0	1	90	0.00	30.370 
22:55	28.4	28.4	28.4	85	24.5	0	1	90	0.00	30.370 
23:00	28.7	28.7	28.7	84	24.5	0	1	90	0.00	30.369 
23:05	29.0	29.0	29.0	84	24.8	0	1	90	0.00	30.369 
23:10	29.0	29.0	29.0	83	24.5	0	1	90	0.00	30.369 
23:15	29.0	29.0	29.0	82	24.2	0	1	90	0.00	30.371 
23:20	29.1	29.1	29.1	82	24.3	0	1	90	0.00	30.371 
23:25	29.3	29.3	29.3	81	24.2	0	1	90	0.00	30.371 
23:30	29.4	29.4	29.4	81	24.3	0	2	90	0.00	30.371 
23:35	29.4	29.4	29.4	81	24.3	0	1	90	0.00	30.371 
23:40	29.4	29.4	29.4	80	24.0	0	1	90	0.00	30.371 
23:45	29.4	29.4	29.4	80	24.0	0	0	---	0.00	30.371 
23:50	29.3	29.3	29.3	80	23.9	0	0	---	0.00	30.371 
23:55	29.1	29.1	29.1	80	23.7	0	0	---	0.00	30.371 

CoCoRaHS
IN-AL-39
A2 Web Hosting
Creative Commons License
GoDaddy
search engine by freefind advanced

loaded 2018-11-16 10:41:33 • last modified 2010-11-18 10:43:29
Privacy PolicyDisclaimer
• wx.awcolley.com is powered by PmWiki v.2002016 •
• all content (unless otherwise noted) © 2018 A W Colley